Fripp Island, South Carolina
Current Conditions -  °F | °C
As of 5:55 AM on Friday 28 Nov 2014 (Local Time) from KARW Reporting Station
Clear Clear  
Wind Chill: 29°   Ceiling: Unl
Heat Index: 36°   Visibility: 7mi
Dew Point: 32°   Wind: 8mph
Humidity: 87%   Direction: 330°NNW
Pressure: 30.34"   Gusts: NA
Location:  32.3871°N, 80.5485°W
Report Text: KARW 281055Z AUTO 33007KT 7SM CLR 02/00 A3034 RMK AO2
Loading
Personal Weather Stations






























Interactive Weather Map New forecast layout! Learn more

10-Day Weather Forecast

Advertisements
Track Severe Weather on mobile